N5120W KBOI-KSLC
Flight info
| Callsign | N5120W |
|---|---|
| Flight time | N/A |
| Altitude | 20000 |
| Route | BYI LHO TCH |
| Aircraft | B350/M-S/2000 |
Departure
| Time | 2026-05-05 15:21 |
|---|---|
| Airport | Boise Air Terminal/Gowen Field (KBOI) |
Arrival
| Time | N/A |
|---|---|
| Airport | Salt Lake City International Airport (KSLC) |
| Time | Latitude | Longitude | Altitude | Speed | Heading |
|---|---|---|---|---|---|
| 2026-05-05 14:55 | 43.56385 | -116.23986 | 2820 ft | 0 kts | 175° |
| 2026-05-05 15:01 | 43.56384 | -116.23986 | 2820 ft | 0 kts | 174° |
| 2026-05-05 15:17 | 43.56381 | -116.23985 | 2821 ft | 1 kts | 173° |
| 2026-05-05 15:17 | 43.56370 | -116.24010 | 2820 ft | 5 kts | 325° |
| 2026-05-05 15:17 | 43.56415 | -116.24021 | 2821 ft | 6 kts | 358° |
| 2026-05-05 15:17 | 43.56472 | -116.24030 | 2822 ft | 10 kts | 355° |
| 2026-05-05 15:18 | 43.56561 | -116.24043 | 2822 ft | 8 kts | 352° |
| 2026-05-05 15:18 | 43.56580 | -116.24133 | 2820 ft | 15 kts | 269° |
| 2026-05-05 15:18 | 43.56628 | -116.24264 | 2818 ft | 3 kts | 344° |
| 2026-05-05 15:18 | 43.56628 | -116.24265 | 2818 ft | 0 kts | 344° |
| 2026-05-05 15:19 | 43.56654 | -116.24272 | 2818 ft | 7 kts | 356° |
| 2026-05-05 15:19 | 43.56723 | -116.24271 | 2818 ft | 12 kts | 0° |
| 2026-05-05 15:19 | 43.56818 | -116.24273 | 2818 ft | 15 kts | 0° |
| 2026-05-05 15:19 | 43.56900 | -116.24271 | 2817 ft | 1 kts | 2° |
| 2026-05-05 15:20 | 43.56910 | -116.24270 | 2817 ft | 0 kts | 1° |
| 2026-05-05 15:20 | 43.56958 | -116.24249 | 2817 ft | 16 kts | 45° |
| 2026-05-05 15:20 | 43.56920 | -116.24011 | 2825 ft | 55 kts | 116° |
| 2026-05-05 15:20 | 43.56653 | -116.23224 | 2839 ft | 121 kts | 114° |
| 2026-05-05 15:21 | 43.56242 | -116.21995 | 2956 ft | 151 kts | 115° |
| 2026-05-05 15:21 | 43.55879 | -116.20691 | 3513 ft | 150 kts | 107° |
| 2026-05-05 15:21 | 43.55564 | -116.19305 | 4116 ft | 153 kts | 106° |
| 2026-05-05 15:21 | 43.55150 | -116.17943 | 4672 ft | 157 kts | 112° |
| 2026-05-05 15:22 | 43.54642 | -116.16669 | 5319 ft | 154 kts | 121° |
| 2026-05-05 15:22 | 43.53978 | -116.15494 | 5801 ft | 163 kts | 126° |
| 2026-05-05 15:22 | 43.53185 | -116.14313 | 6254 ft | 172 kts | 134° |
| 2026-05-05 15:22 | 43.52257 | -116.13271 | 6779 ft | 168 kts | 122° |
| 2026-05-05 15:23 | 43.51898 | -116.11791 | 7143 ft | 167 kts | 83° |
| 2026-05-05 15:23 | 43.51626 | -116.10192 | 7444 ft | 185 kts | 114° |
| 2026-05-05 15:23 | 43.50979 | -116.08637 | 7879 ft | 188 kts | 115° |
| 2026-05-05 15:23 | 43.50345 | -116.07083 | 8360 ft | 187 kts | 115° |
| 2026-05-05 15:24 | 43.49715 | -116.05527 | 8816 ft | 187 kts | 116° |
| 2026-05-05 15:24 | 43.49085 | -116.03965 | 9241 ft | 188 kts | 115° |
| 2026-05-05 15:24 | 43.48449 | -116.02392 | 9658 ft | 190 kts | 115° |
| 2026-05-05 15:24 | 43.47807 | -116.00801 | 10061 ft | 191 kts | 116° |
| 2026-05-05 15:25 | 43.47168 | -115.99219 | 10440 ft | 192 kts | 116° |
| 2026-05-05 15:25 | 43.46514 | -115.97601 | 10832 ft | 193 kts | 115° |
| 2026-05-05 15:25 | 43.45853 | -115.95966 | 11163 ft | 200 kts | 115° |
| 2026-05-05 15:25 | 43.45178 | -115.94301 | 11583 ft | 202 kts | 115° |
| 2026-05-05 15:26 | 43.44498 | -115.92621 | 12075 ft | 200 kts | 115° |
| 2026-05-05 15:26 | 43.43821 | -115.90952 | 12550 ft | 199 kts | 114° |
| 2026-05-05 15:26 | 43.43158 | -115.89314 | 12969 ft | 199 kts | 114° |
| 2026-05-05 15:26 | 43.42482 | -115.87647 | 13379 ft | 200 kts | 114° |
| 2026-05-05 15:27 | 43.41800 | -115.85966 | 13761 ft | 202 kts | 114° |
| 2026-05-05 15:27 | 43.41120 | -115.84291 | 14127 ft | 202 kts | 114° |
| 2026-05-05 15:27 | 43.40439 | -115.82614 | 14490 ft | 203 kts | 113° |
| 2026-05-05 15:27 | 43.39749 | -115.80919 | 14858 ft | 203 kts | 114° |
| 2026-05-05 15:28 | 43.39060 | -115.79224 | 15222 ft | 203 kts | 114° |
| 2026-05-05 15:28 | 43.38379 | -115.77551 | 15553 ft | 203 kts | 114° |
| 2026-05-05 15:28 | 43.37684 | -115.75844 | 15888 ft | 204 kts | 112° |
| 2026-05-05 15:28 | 43.36997 | -115.74155 | 16192 ft | 205 kts | 113° |
| 2026-05-05 15:29 | 43.36302 | -115.72451 | 16501 ft | 205 kts | 113° |
| 2026-05-05 15:29 | 43.35600 | -115.70731 | 16819 ft | 206 kts | 112° |
| 2026-05-05 15:29 | 43.34910 | -115.69040 | 17129 ft | 205 kts | 112° |
| 2026-05-05 15:29 | 43.34212 | -115.67329 | 17433 ft | 205 kts | 112° |
| 2026-05-05 15:30 | 43.33516 | -115.65625 | 17721 ft | 206 kts | 112° |
| 2026-05-05 15:30 | 43.32812 | -115.63905 | 18007 ft | 206 kts | 112° |
| 2026-05-05 15:30 | 43.32114 | -115.62200 | 18296 ft | 206 kts | 111° |
| 2026-05-05 15:30 | 43.31414 | -115.60485 | 18585 ft | 205 kts | 111° |
| 2026-05-05 15:31 | 43.30721 | -115.58786 | 18849 ft | 205 kts | 111° |
| 2026-05-05 15:31 | 43.30023 | -115.57079 | 19088 ft | 206 kts | 111° |
| 2026-05-05 15:31 | 43.29317 | -115.55357 | 19340 ft | 207 kts | 111° |
| 2026-05-05 15:31 | 43.28618 | -115.53657 | 19603 ft | 206 kts | 111° |
| 2026-05-05 15:32 | 43.27911 | -115.51942 | 19854 ft | 206 kts | 111° |
| 2026-05-05 15:32 | 43.27200 | -115.50213 | 19949 ft | 214 kts | 111° |
| 2026-05-05 15:32 | 43.26445 | -115.48379 | 19968 ft | 226 kts | 112° |
| 2026-05-05 15:32 | 43.25655 | -115.46456 | 19960 ft | 237 kts | 112° |
| 2026-05-05 15:33 | 43.24832 | -115.44457 | 19955 ft | 248 kts | 112° |
| 2026-05-05 15:33 | 43.23962 | -115.42347 | 19945 ft | 257 kts | 113° |
| 2026-05-05 15:33 | 43.23074 | -115.40198 | 19947 ft | 265 kts | 114° |
| 2026-05-05 15:33 | 43.22152 | -115.37965 | 19949 ft | 272 kts | 114° |
| 2026-05-05 15:34 | 43.21218 | -115.35703 | 19952 ft | 278 kts | 114° |
| 2026-05-05 15:34 | 43.20253 | -115.33372 | 19943 ft | 284 kts | 114° |
| 2026-05-05 15:34 | 43.19275 | -115.31008 | 19940 ft | 289 kts | 114° |
| 2026-05-05 15:34 | 43.18283 | -115.28615 | 19940 ft | 294 kts | 115° |
| 2026-05-05 15:35 | 43.17270 | -115.26169 | 19938 ft | 298 kts | 115° |
| 2026-05-05 15:35 | 43.16243 | -115.23691 | 19938 ft | 301 kts | 115° |
| 2026-05-05 15:35 | 43.15199 | -115.21174 | 19923 ft | 304 kts | 115° |
| 2026-05-05 15:35 | 43.14154 | -115.18657 | 19933 ft | 306 kts | 115° |
| 2026-05-05 15:36 | 43.13104 | -115.16131 | 19921 ft | 308 kts | 115° |
| 2026-05-05 15:36 | 43.12038 | -115.13570 | 19926 ft | 310 kts | 115° |
| 2026-05-05 15:36 | 43.10969 | -115.11003 | 19927 ft | 311 kts | 115° |
| 2026-05-05 15:36 | 43.09898 | -115.08437 | 19915 ft | 312 kts | 115° |
| 2026-05-05 15:37 | 43.08824 | -115.05865 | 19917 ft | 313 kts | 116° |
| 2026-05-05 15:37 | 43.07752 | -115.03297 | 19917 ft | 313 kts | 115° |
| 2026-05-05 15:37 | 43.06669 | -115.00704 | 19919 ft | 314 kts | 115° |
| 2026-05-05 15:37 | 43.05582 | -114.98106 | 19915 ft | 315 kts | 115° |
| 2026-05-05 15:38 | 43.04491 | -114.95499 | 19916 ft | 316 kts | 115° |
| 2026-05-05 15:38 | 43.03406 | -114.92908 | 19908 ft | 316 kts | 115° |
| 2026-05-05 15:38 | 43.02304 | -114.90280 | 19913 ft | 317 kts | 116° |
| 2026-05-05 15:38 | 43.01217 | -114.87691 | 19908 ft | 317 kts | 116° |
| 2026-05-05 15:39 | 43.00114 | -114.85064 | 19904 ft | 318 kts | 115° |
| 2026-05-05 15:39 | 42.99017 | -114.82455 | 19910 ft | 318 kts | 115° |
| 2026-05-05 15:39 | 42.97912 | -114.79829 | 19906 ft | 318 kts | 116° |
| 2026-05-05 15:39 | 42.96823 | -114.77245 | 19908 ft | 319 kts | 116° |
| 2026-05-05 15:40 | 42.95712 | -114.74609 | 19905 ft | 319 kts | 116° |
| 2026-05-05 15:40 | 42.94602 | -114.71977 | 19897 ft | 319 kts | 116° |
| 2026-05-05 15:40 | 42.93510 | -114.69392 | 19907 ft | 319 kts | 115° |
| 2026-05-05 15:40 | 42.92402 | -114.66773 | 19911 ft | 319 kts | 116° |
| 2026-05-05 15:41 | 42.91288 | -114.64140 | 19909 ft | 319 kts | 116° |
| 2026-05-05 15:41 | 42.90185 | -114.61535 | 19909 ft | 319 kts | 116° |
| 2026-05-05 15:41 | 42.89077 | -114.58920 | 19896 ft | 319 kts | 116° |
| 2026-05-05 15:41 | 42.87971 | -114.56313 | 19901 ft | 319 kts | 116° |
| 2026-05-05 15:42 | 42.86860 | -114.53699 | 19898 ft | 319 kts | 115° |
| 2026-05-05 15:42 | 42.85745 | -114.51073 | 19905 ft | 318 kts | 116° |
| 2026-05-05 15:42 | 42.84648 | -114.48494 | 19896 ft | 318 kts | 116° |
| 2026-05-05 15:42 | 42.83541 | -114.45895 | 19921 ft | 318 kts | 116° |
| 2026-05-05 15:43 | 42.82433 | -114.43294 | 19905 ft | 319 kts | 116° |
| 2026-05-05 15:43 | 42.81314 | -114.40672 | 19906 ft | 318 kts | 116° |
| 2026-05-05 15:43 | 42.80206 | -114.38075 | 19898 ft | 319 kts | 116° |